createdAt,value
2022-11-09T00:01:02.632Z,14.35
2022-11-09T00:04:06.633Z,14.28
2022-11-09T00:07:10.506Z,14.27
2022-11-09T00:10:13.134Z,14.25
2022-11-09T00:13:15.787Z,14.13
2022-11-09T00:16:20.157Z,14.25
2022-11-09T00:19:22.649Z,14.27
2022-11-09T00:22:26.489Z,14.12
2022-11-09T00:25:29.001Z,14.05
2022-11-09T00:28:31.675Z,14.13
2022-11-09T00:31:34.181Z,14.23
2022-11-09T00:34:36.680Z,14.16
2022-11-09T00:37:40.571Z,14.20
2022-11-09T00:40:43.068Z,14.16
2022-11-09T00:43:45.705Z,14.32
2022-11-09T00:46:48.347Z,14.24
2022-11-09T00:49:50.847Z,14.36
2022-11-09T00:52:54.718Z,14.04
2022-11-09T00:55:58.315Z,14.27
2022-11-09T00:59:00.804Z,14.33
2022-11-09T01:02:03.307Z,14.17
2022-11-09T01:05:06.630Z,14.06
2022-11-09T01:08:10.647Z,14.05
2022-11-09T01:11:14.125Z,14.17
2022-11-09T01:14:16.683Z,14.14
2022-11-09T01:17:19.213Z,14.03
2022-11-09T01:20:21.894Z,13.99
2022-11-09T01:23:25.743Z,14.00
2022-11-09T01:26:28.555Z,14.03
2022-11-09T01:29:31.068Z,13.98
2022-11-09T01:32:33.923Z,13.91
2022-11-09T01:35:38.218Z,14.02
2022-11-09T01:38:42.200Z,14.03
2022-11-09T01:41:44.759Z,13.95
2022-11-09T01:44:47.235Z,14.05
2022-11-09T01:47:53.714Z,13.91
2022-11-09T01:51:00.282Z,13.79
2022-11-09T01:54:07.795Z,14.08
2022-11-09T01:57:13.970Z,14.09
2022-11-09T02:00:18.588Z,14.09
2022-11-09T02:03:26.283Z,13.94
2022-11-09T02:06:31.407Z,14.08
2022-11-09T02:09:41.815Z,14.01
2022-11-09T02:12:45.695Z,13.90
2022-11-09T02:15:49.604Z,13.95
2022-11-09T02:18:54.064Z,13.77
2022-11-09T02:21:58.363Z,13.85
2022-11-09T02:25:00.918Z,13.83
2022-11-09T02:28:03.706Z,13.99
2022-11-09T02:31:09.154Z,14.08
2022-11-09T02:34:15.333Z,14.15
2022-11-09T02:37:27.668Z,14.04
2022-11-09T02:40:36.535Z,14.14
2022-11-09T02:43:39.027Z,14.12
2022-11-09T02:46:41.535Z,13.96
2022-11-09T02:49:44.080Z,14.14
2022-11-09T02:52:47.953Z,14.26
2022-11-09T02:55:50.444Z,14.22
2022-11-09T02:58:52.972Z,14.03
2022-11-09T03:01:55.472Z,13.97
2022-11-09T03:04:57.963Z,14.05
2022-11-09T03:08:02.360Z,14.12
2022-11-09T03:11:06.065Z,14.17
2022-11-09T03:14:09.702Z,14.25
2022-11-09T03:17:14.008Z,14.23
2022-11-09T03:20:16.597Z,14.08
2022-11-09T03:23:20.687Z,14.10
2022-11-09T03:26:23.966Z,14.11
2022-11-09T03:29:26.478Z,14.06
2022-11-09T03:32:28.969Z,13.99
2022-11-09T03:35:31.544Z,14.05
2022-11-09T03:38:35.392Z,14.01
2022-11-09T03:41:37.869Z,14.11
2022-11-09T03:44:40.369Z,14.16
2022-11-09T03:47:43.091Z,14.03
2022-11-09T03:50:45.708Z,14.11
2022-11-09T03:53:49.551Z,14.01
2022-11-09T03:56:52.072Z,14.13
2022-11-09T03:59:54.574Z,14.12
2022-11-09T04:02:57.354Z,14.05
2022-11-09T04:05:59.948Z,14.03
2022-11-09T04:09:04.253Z,14.00
2022-11-09T04:12:06.945Z,14.14
2022-11-09T04:15:10.189Z,14.01
2022-11-09T04:18:15.315Z,14.10
2022-11-09T04:21:22.761Z,14.02
2022-11-09T04:24:27.660Z,14.07
2022-11-09T04:27:30.579Z,14.04
2022-11-09T04:30:35.321Z,14.05
2022-11-09T04:33:37.812Z,14.20
2022-11-09T04:36:40.329Z,14.31
2022-11-09T04:39:44.160Z,14.27
2022-11-09T04:42:46.697Z,14.28
2022-11-09T04:45:49.197Z,14.27
2022-11-09T04:48:51.756Z,14.16
2022-11-09T04:51:54.232Z,14.18
2022-11-09T04:54:58.069Z,14.22
2022-11-09T04:58:00.600Z,14.21
2022-11-09T05:01:04.279Z,14.31
2022-11-09T05:04:06.827Z,14.18
2022-11-09T05:07:09.414Z,14.12
2022-11-09T05:10:13.285Z,14.13
2022-11-09T05:13:16.650Z,14.00
2022-11-09T05:16:19.732Z,14.04
2022-11-09T05:19:22.248Z,13.95
2022-11-09T05:22:42.314Z,14.03
2022-11-09T05:25:46.581Z,14.14
2022-11-09T05:28:49.089Z,14.16
2022-11-09T05:31:52.605Z,13.89
2022-11-09T05:34:55.162Z,14.05
2022-11-09T05:37:57.671Z,14.13
2022-11-09T05:41:01.534Z,14.14
2022-11-09T05:44:04.095Z,14.02
2022-11-09T05:47:06.655Z,13.95
2022-11-09T05:50:11.558Z,14.00
2022-11-09T05:53:14.094Z,14.07
2022-11-09T05:56:17.973Z,14.11
2022-11-09T05:59:20.456Z,14.10
2022-11-09T06:02:23.358Z,13.88
2022-11-09T06:05:25.890Z,14.10
2022-11-09T06:08:28.488Z,14.06
2022-11-09T06:11:32.300Z,13.87
2022-11-09T06:14:34.814Z,14.12
2022-11-09T06:17:37.316Z,13.92
2022-11-09T06:20:39.808Z,13.98
2022-11-09T06:23:42.350Z,14.02
2022-11-09T06:26:46.295Z,14.05
2022-11-09T06:29:48.778Z,13.97
2022-11-09T06:32:51.291Z,13.83
2022-11-09T06:35:56.512Z,13.89
2022-11-09T06:38:59.227Z,13.97
2022-11-09T06:42:03.191Z,14.01
2022-11-09T06:45:06.284Z,13.86
2022-11-09T06:48:10.567Z,13.79
2022-11-09T06:51:13.116Z,14.01
2022-11-09T06:54:15.628Z,13.96
2022-11-09T06:57:19.524Z,13.95
2022-11-09T07:00:22.923Z,13.81
2022-11-09T07:03:25.596Z,13.86
2022-11-09T07:06:28.154Z,13.95
2022-11-09T07:09:30.691Z,13.82
2022-11-09T07:12:35.593Z,13.96
2022-11-09T07:15:39.323Z,13.92
2022-11-09T07:18:41.829Z,13.88
2022-11-09T07:21:44.351Z,14.11
2022-11-09T07:24:47.004Z,14.04
2022-11-09T07:27:51.726Z,14.01
2022-11-09T07:30:54.400Z,13.90
2022-11-09T07:33:58.298Z,14.02
2022-11-09T07:37:00.891Z,14.01
2022-11-09T07:40:03.714Z,13.86
2022-11-09T07:43:07.843Z,13.97
2022-11-09T07:46:10.345Z,14.09
2022-11-09T07:49:13.812Z,14.12
2022-11-09T07:52:16.338Z,14.25
2022-11-09T07:55:18.868Z,14.01
2022-11-09T07:58:22.689Z,14.03
2022-11-09T08:01:25.221Z,14.18
2022-11-09T08:04:27.905Z,14.21
2022-11-09T08:07:30.548Z,14.05
2022-11-09T08:10:34.544Z,14.22
2022-11-09T08:13:38.516Z,14.21
2022-11-09T08:16:41.075Z,14.30
2022-11-09T08:19:43.594Z,14.07
2022-11-09T08:22:47.212Z,14.09
2022-11-09T08:25:50.217Z,14.10
2022-11-09T08:28:54.058Z,14.20
2022-11-09T08:31:56.592Z,14.33
2022-11-09T08:34:59.097Z,14.08
2022-11-09T08:38:03.238Z,14.25
2022-11-09T08:41:10.591Z,14.28
2022-11-09T08:44:16.979Z,14.29
2022-11-09T08:47:19.509Z,14.31
2022-11-09T08:50:22.011Z,14.25
2022-11-09T08:53:25.036Z,14.27
2022-11-09T08:56:27.539Z,14.38
2022-11-09T08:59:31.379Z,14.46
2022-11-09T09:02:33.973Z,14.25
2022-11-09T09:05:37.484Z,14.40
2022-11-09T09:08:39.995Z,14.30
2022-11-09T09:11:42.642Z,14.42
2022-11-09T09:14:46.667Z,14.36
2022-11-09T09:17:49.340Z,14.25
2022-11-09T09:20:51.863Z,14.27
2022-11-09T09:23:55.326Z,14.40
2022-11-09T09:26:57.805Z,14.79
2022-11-09T09:30:01.713Z,14.75
2022-11-09T09:33:04.243Z,14.81
2022-11-09T09:36:07.167Z,15.04
2022-11-09T09:39:09.821Z,14.94
2022-11-09T09:42:17.320Z,15.23
2022-11-09T09:45:24.751Z,15.34
2022-11-09T09:48:46.255Z,15.59
2022-11-09T09:51:53.451Z,15.77
2022-11-09T09:55:01.445Z,15.68
2022-11-09T09:58:07.684Z,15.47
2022-11-09T10:01:17.083Z,15.33
2022-11-09T10:04:22.562Z,15.46
2022-11-09T10:07:30.680Z,15.37
2022-11-09T10:10:44.380Z,15.62
2022-11-09T10:14:10.813Z,15.66
2022-11-09T10:17:23.997Z,15.62
2022-11-09T10:20:41.052Z,15.96
2022-11-09T10:24:01.223Z,15.71
2022-11-09T10:27:18.800Z,15.76
2022-11-09T10:30:23.080Z,16.51
2022-11-09T10:33:29.202Z,16.82
2022-11-09T10:36:34.611Z,16.67
2022-11-09T10:39:43.249Z,16.83
2022-11-09T10:42:49.987Z,17.76
2022-11-09T10:46:01.051Z,18.52
2022-11-09T10:49:20.774Z,19.82
2022-11-09T10:52:43.033Z,20.09
2022-11-09T10:55:54.711Z,20.79
2022-11-09T10:58:57.260Z,19.70
2022-11-09T11:02:02.403Z,19.21
2022-11-09T11:05:29.142Z,17.73
2022-11-09T11:08:38.679Z,16.99
2022-11-09T11:11:41.280Z,18.01
2022-11-09T11:14:45.744Z,18.99
2022-11-09T11:17:48.553Z,20.30
2022-11-09T11:21:17.467Z,19.84
2022-11-09T11:24:21.787Z,18.51
2022-11-09T11:27:29.739Z,17.73
2022-11-09T11:30:36.132Z,17.08
2022-11-09T11:33:38.632Z,17.50
2022-11-09T11:36:56.330Z,17.03
2022-11-09T11:40:02.810Z,16.80
2022-11-09T11:43:23.743Z,16.74
2022-11-09T11:46:33.869Z,16.77
2022-11-09T11:50:02.225Z,16.73
2022-11-09T11:53:14.253Z,16.91
2022-11-09T11:56:24.027Z,16.87
2022-11-09T11:59:55.754Z,16.92
2022-11-09T12:03:16.301Z,16.89
2022-11-09T12:06:33.175Z,17.09
2022-11-09T12:10:01.248Z,17.08
2022-11-09T12:13:12.106Z,16.95
2022-11-09T12:16:25.719Z,16.60
2022-11-09T12:19:57.034Z,16.59
2022-11-09T12:23:17.002Z,16.49
2022-11-09T12:26:33.821Z,16.31
2022-11-09T12:29:40.870Z,16.22
2022-11-09T12:32:52.191Z,16.04
2022-11-09T12:35:59.354Z,16.32
2022-11-09T12:39:11.925Z,16.71
2022-11-09T12:42:21.249Z,17.01
2022-11-09T12:45:28.879Z,17.44
2022-11-09T12:48:34.621Z,17.96
2022-11-09T12:51:38.460Z,17.82
2022-11-09T12:54:45.046Z,18.52
2022-11-09T12:57:49.387Z,19.43
2022-11-09T13:00:55.457Z,19.39
2022-11-09T13:03:59.791Z,19.96
2022-11-09T13:07:29.052Z,21.03
2022-11-09T13:10:34.356Z,21.70
2022-11-09T13:13:38.444Z,21.22
2022-11-09T13:16:41.080Z,20.54
2022-11-09T13:19:52.330Z,20.26
2022-11-09T13:23:00.654Z,20.20
2022-11-09T13:26:04.362Z,21.07
2022-11-09T13:29:23.597Z,21.63
2022-11-09T13:32:28.003Z,21.41
2022-11-09T13:36:00.085Z,21.27
2022-11-09T13:39:32.026Z,21.83
2022-11-09T13:42:37.060Z,20.32
2022-11-09T13:45:44.267Z,21.00
2022-11-09T13:48:48.413Z,19.79
2022-11-09T13:51:51.089Z,18.53
2022-11-09T13:54:55.197Z,17.67
2022-11-09T13:58:03.269Z,17.64
2022-11-09T14:01:07.273Z,17.42
2022-11-09T14:04:21.425Z,17.05
2022-11-09T14:07:27.135Z,16.62
2022-11-09T14:10:45.101Z,16.78
2022-11-09T14:14:09.410Z,16.87
2022-11-09T14:17:21.659Z,16.52
2022-11-09T14:20:32.329Z,16.40
2022-11-09T14:23:35.635Z,16.05
2022-11-09T14:26:38.296Z,16.13
2022-11-09T14:29:50.442Z,16.39
2022-11-09T14:32:56.234Z,16.31
2022-11-09T14:36:01.180Z,16.44
2022-11-09T14:39:07.248Z,16.18
2022-11-09T14:42:18.372Z,16.17
2022-11-09T14:45:21.764Z,16.08
2022-11-09T14:48:26.558Z,15.97
2022-11-09T14:51:36.462Z,15.85
2022-11-09T14:54:44.817Z,15.87
2022-11-09T14:57:49.697Z,15.68
2022-11-09T15:01:09.776Z,15.65
2022-11-09T15:04:16.873Z,15.70
2022-11-09T15:07:23.609Z,15.68
2022-11-09T15:10:29.549Z,15.49
2022-11-09T15:13:34.940Z,15.44
2022-11-09T15:16:37.574Z,15.42
2022-11-09T15:19:51.310Z,15.35
2022-11-09T15:22:55.958Z,15.38
2022-11-09T15:25:58.560Z,15.45
2022-11-09T15:29:01.372Z,15.40
2022-11-09T15:32:14.046Z,15.52
2022-11-09T15:35:19.266Z,15.73
2022-11-09T15:38:31.019Z,15.51
2022-11-09T15:41:33.660Z,15.39
2022-11-09T15:44:37.547Z,15.37
2022-11-09T15:47:40.351Z,15.15
2022-11-09T15:50:45.449Z,15.15
2022-11-09T15:53:48.089Z,15.27
2022-11-09T15:56:51.886Z,15.03
2022-11-09T15:59:54.595Z,15.11
2022-11-09T16:02:57.243Z,14.76
2022-11-09T16:06:01.182Z,14.75
2022-11-09T16:09:03.995Z,14.81
2022-11-09T16:12:07.155Z,14.81
2022-11-09T16:15:10.561Z,14.94
2022-11-09T16:18:13.509Z,14.89
2022-11-09T16:21:18.414Z,14.89
2022-11-09T16:24:21.185Z,14.83
2022-11-09T16:27:51.717Z,14.91
2022-11-09T16:30:47.079Z,14.94
2022-11-09T16:33:49.934Z,14.79
2022-11-09T16:36:56.864Z,14.76
2022-11-09T16:40:00.562Z,14.92
2022-11-09T16:43:03.260Z,14.94
2022-11-09T16:46:06.357Z,14.91
2022-11-09T16:49:09.042Z,14.86
2022-11-09T16:52:13.099Z,14.66
2022-11-09T16:55:15.882Z,14.76
2022-11-09T16:58:18.924Z,14.94
2022-11-09T17:01:23.736Z,14.68
2022-11-09T17:04:27.292Z,14.79
2022-11-09T17:07:41.979Z,14.70
2022-11-09T17:10:47.968Z,14.54
2022-11-09T17:13:56.038Z,14.34
2022-11-09T17:16:58.733Z,14.04
2022-11-09T17:20:04.906Z,13.87
2022-11-09T17:23:09.106Z,13.40
2022-11-09T17:26:12.438Z,13.30
2022-11-09T17:29:15.081Z,13.27
2022-11-09T17:32:22.346Z,13.37
2022-11-09T17:35:25.323Z,13.35
2022-11-09T17:38:29.990Z,13.38
2022-11-09T17:41:32.649Z,13.29
2022-11-09T17:44:35.428Z,13.24
2022-11-09T17:47:38.088Z,13.20
2022-11-09T17:50:40.700Z,13.29
2022-11-09T17:53:45.425Z,13.21
2022-11-09T17:56:48.078Z,12.60
2022-11-09T17:59:50.737Z,12.67
2022-11-09T18:02:55.468Z,12.64
2022-11-09T18:05:58.118Z,12.80
2022-11-09T18:12:24.877Z,12.87
2022-11-09T18:15:27.502Z,13.02
2022-11-09T18:18:30.203Z,12.81
2022-11-09T18:21:33.447Z,12.82
2022-11-09T18:24:37.488Z,12.86
2022-11-09T18:27:40.126Z,13.00
2022-11-09T18:30:42.737Z,13.05
2022-11-09T18:33:45.375Z,12.99
2022-11-09T18:36:47.998Z,13.04
2022-11-09T18:39:51.963Z,13.15
2022-11-09T18:42:54.566Z,13.11
2022-11-09T18:45:58.586Z,13.04
2022-11-09T18:49:01.237Z,13.18
2022-11-09T18:52:03.881Z,13.08
2022-11-09T18:55:08.924Z,13.14
2022-11-09T18:58:11.689Z,13.09
2022-11-09T19:01:14.983Z,13.15
2022-11-09T19:04:18.276Z,13.31
2022-11-09T19:07:21.147Z,13.23
2022-11-09T19:10:25.131Z,13.33
2022-11-09T19:13:27.781Z,13.28
2022-11-09T19:16:33.901Z,13.33
2022-11-09T19:19:36.527Z,13.35
2022-11-09T19:22:39.223Z,13.31
2022-11-09T19:25:43.227Z,13.37
2022-11-09T19:28:45.892Z,13.42
2022-11-09T19:31:48.939Z,13.38
2022-11-09T19:34:51.641Z,13.27
2022-11-09T19:37:54.258Z,13.34
2022-11-09T19:40:58.446Z,13.37
2022-11-09T19:44:01.119Z,13.27
2022-11-09T19:47:03.755Z,13.36
2022-11-09T19:50:07.599Z,13.34
2022-11-09T19:53:10.221Z,13.37
2022-11-09T19:56:14.293Z,13.35
2022-11-09T19:59:18.578Z,13.23
2022-11-09T20:02:21.270Z,13.21
2022-11-09T20:05:23.893Z,13.18
2022-11-09T20:08:26.871Z,13.11
2022-11-09T20:11:48.737Z,12.99
2022-11-09T20:14:51.377Z,13.00
2022-11-09T20:17:53.982Z,13.01
2022-11-09T20:20:56.600Z,13.09
2022-11-09T20:23:59.500Z,13.12
2022-11-09T20:27:03.472Z,13.02
2022-11-09T20:30:07.160Z,13.06
2022-11-09T20:33:10.556Z,13.06
2022-11-09T20:36:13.320Z,13.17
2022-11-09T20:39:16.047Z,13.19
2022-11-09T20:42:20.039Z,12.94
2022-11-09T20:45:22.683Z,12.95
2022-11-09T20:48:52.033Z,13.12
2022-11-09T20:51:47.930Z,13.06
2022-11-09T20:54:50.641Z,13.12
2022-11-09T20:57:54.615Z,12.86
2022-11-09T21:01:02.042Z,12.79
2022-11-09T21:04:05.843Z,12.75
2022-11-09T21:07:08.824Z,12.68
2022-11-09T21:10:11.516Z,12.71
2022-11-09T21:13:16.496Z,12.83
2022-11-09T21:16:20.578Z,12.80
2022-11-09T21:19:23.476Z,12.82
2022-11-09T21:22:46.971Z,12.75
2022-11-09T21:26:06.917Z,12.74
2022-11-09T21:29:29.442Z,12.79
2022-11-09T21:32:32.086Z,12.62
2022-11-09T21:35:34.693Z,12.50
2022-11-09T21:38:37.707Z,12.67
2022-11-09T21:41:40.711Z,12.67
2022-11-09T21:44:44.764Z,12.74
2022-11-09T21:47:47.566Z,12.76
2022-11-09T21:50:50.182Z,12.74
2022-11-09T21:53:52.869Z,12.82
2022-11-09T21:56:55.908Z,12.92
2022-11-09T21:59:59.878Z,13.04
2022-11-09T22:03:03.489Z,12.81
2022-11-09T22:06:06.582Z,12.68
2022-11-09T22:09:14.114Z,12.69
2022-11-09T22:12:34.308Z,12.62
2022-11-09T22:15:55.976Z,12.72
2022-11-09T22:19:16.688Z,12.48
2022-11-09T22:22:19.321Z,12.57
2022-11-09T22:25:21.956Z,12.75
2022-11-09T22:28:24.584Z,12.81
2022-11-09T22:31:29.082Z,12.78
2022-11-09T22:34:31.695Z,12.88
2022-11-09T22:37:34.346Z,12.82
2022-11-09T22:40:36.986Z,12.70
2022-11-09T22:43:41.089Z,12.71
2022-11-09T22:46:45.049Z,12.64
2022-11-09T22:49:47.676Z,12.72
2022-11-09T22:52:53.947Z,12.79
2022-11-09T22:55:58.101Z,12.85
2022-11-09T22:59:00.721Z,12.85
2022-11-09T23:02:04.684Z,12.97
2022-11-09T23:05:08.744Z,12.87
2022-11-09T23:08:11.442Z,12.82
2022-11-09T23:11:16.230Z,12.81
2022-11-09T23:14:39.168Z,12.77
2022-11-09T23:18:00.575Z,12.82
2022-11-09T23:21:03.218Z,12.70
2022-11-09T23:24:27.848Z,12.79
2022-11-09T23:27:30.561Z,12.72
2022-11-09T23:30:33.175Z,12.57
2022-11-09T23:33:38.204Z,12.45
2022-11-09T23:36:40.817Z,12.51
2022-11-09T23:39:43.401Z,12.76
2022-11-09T23:42:46.055Z,12.73
2022-11-09T23:45:48.665Z,12.86
2022-11-09T23:48:52.673Z,12.82
2022-11-09T23:51:55.263Z,12.62
2022-11-09T23:54:57.869Z,12.42
2022-11-09T23:58:02.153Z,12.48
